createdAt,value
2023-01-27T00:01:35.556Z,99.18
2023-01-27T00:04:03.248Z,99.71
2023-01-27T00:06:30.723Z,99.80
2023-01-27T00:08:57.518Z,99.43
2023-01-27T00:11:24.520Z,99.36
2023-01-27T00:13:52.806Z,99.06
2023-01-27T00:16:19.801Z,100.00
2023-01-27T00:18:46.613Z,98.88
2023-01-27T00:21:16.046Z,99.55
2023-01-27T00:23:43.145Z,99.97
2023-01-27T00:26:13.126Z,100.00
2023-01-27T00:28:41.403Z,99.74
2023-01-27T00:31:11.294Z,100.00
2023-01-27T00:33:38.415Z,100.00
2023-01-27T00:36:07.290Z,100.00
2023-01-27T00:38:35.845Z,100.00
2023-01-27T00:41:02.789Z,100.00
2023-01-27T00:43:29.721Z,100.00
2023-01-27T00:45:57.158Z,100.00
2023-01-27T00:48:25.606Z,100.00
2023-01-27T00:50:55.292Z,100.00
2023-01-27T00:53:22.120Z,100.00
2023-01-27T00:55:48.979Z,100.00
2023-01-27T00:58:15.748Z,100.00
2023-01-27T01:00:42.582Z,100.00
2023-01-27T01:03:09.547Z,100.00
2023-01-27T01:05:38.060Z,100.00
2023-01-27T01:08:05.072Z,99.93
2023-01-27T01:10:31.815Z,99.92
2023-01-27T01:12:58.470Z,99.88
2023-01-27T01:15:25.369Z,99.68
2023-01-27T01:17:52.445Z,99.70
2023-01-27T01:20:19.155Z,99.30
2023-01-27T01:22:47.392Z,98.43
2023-01-27T01:25:14.106Z,98.67
2023-01-27T01:27:44.666Z,98.15
2023-01-27T01:30:12.674Z,98.50
2023-01-27T01:32:39.604Z,98.13
2023-01-27T01:35:09.092Z,98.20
2023-01-27T01:37:36.335Z,97.89
2023-01-27T01:40:07.305Z,97.65
2023-01-27T01:42:52.258Z,98.61
2023-01-27T01:46:01.907Z,97.82
2023-01-27T01:48:33.658Z,98.35
2023-01-27T01:51:05.418Z,98.66
2023-01-27T01:53:35.983Z,98.36
2023-01-27T01:56:12.247Z,98.14
2023-01-27T01:58:45.272Z,98.04
2023-01-27T02:01:15.434Z,98.52
2023-01-27T02:03:44.515Z,97.82
2023-01-27T02:06:12.058Z,97.45
2023-01-27T02:08:40.304Z,97.02
2023-01-27T02:11:09.223Z,97.21
2023-01-27T02:13:36.129Z,97.14
2023-01-27T02:16:05.927Z,97.13
2023-01-27T02:18:33.502Z,97.12
2023-01-27T02:21:01.051Z,96.79
2023-01-27T02:23:39.424Z,96.86
2023-01-27T02:26:14.183Z,97.42
2023-01-27T02:28:41.401Z,97.32
2023-01-27T02:31:08.198Z,97.23
2023-01-27T02:33:35.224Z,97.54
2023-01-27T02:36:06.433Z,97.76
2023-01-27T02:38:35.753Z,97.56
2023-01-27T02:41:09.683Z,97.24
2023-01-27T02:43:39.486Z,97.35
2023-01-27T02:46:06.723Z,97.95
2023-01-27T02:48:35.597Z,97.31
2023-01-27T02:51:02.305Z,96.96
2023-01-27T02:53:29.186Z,96.92
2023-01-27T02:55:56.150Z,96.90
2023-01-27T02:58:22.932Z,96.96
2023-01-27T03:00:52.484Z,96.05
2023-01-27T03:03:19.513Z,97.14
2023-01-27T03:05:46.701Z,97.13
2023-01-27T03:08:13.714Z,97.23
2023-01-27T03:10:40.614Z,96.47
2023-01-27T03:13:08.049Z,96.70
2023-01-27T03:15:35.864Z,97.21
2023-01-27T03:18:09.095Z,96.84
2023-01-27T03:20:36.390Z,96.92
2023-01-27T03:23:03.575Z,96.09
2023-01-27T03:25:30.628Z,96.35
2023-01-27T03:27:57.841Z,96.03
2023-01-27T03:30:26.965Z,95.65
2023-01-27T03:32:54.097Z,94.58
2023-01-27T03:35:25.074Z,91.98
2023-01-27T03:37:51.859Z,90.19
2023-01-27T03:40:19.113Z,88.86
2023-01-27T03:42:46.000Z,90.72
2023-01-27T03:45:13.565Z,90.49
2023-01-27T03:47:40.858Z,90.06
2023-01-27T03:50:07.805Z,90.58
2023-01-27T03:52:36.904Z,90.40
2023-01-27T03:55:04.089Z,90.73
2023-01-27T03:57:30.805Z,91.71
2023-01-27T03:59:57.582Z,91.06
2023-01-27T04:02:24.871Z,91.04
2023-01-27T04:04:51.666Z,91.49
2023-01-27T04:07:18.650Z,91.61
2023-01-27T04:09:46.878Z,91.76
2023-01-27T04:12:13.708Z,91.60
2023-01-27T04:14:40.947Z,91.49
2023-01-27T04:17:11.378Z,91.21
2023-01-27T04:19:39.054Z,91.21
2023-01-27T04:22:07.138Z,91.24
2023-01-27T04:24:34.143Z,90.92
2023-01-27T04:27:04.196Z,90.61
2023-01-27T04:29:33.574Z,90.80
2023-01-27T04:32:01.070Z,90.85
2023-01-27T04:34:30.804Z,90.75
2023-01-27T04:36:58.175Z,90.46
2023-01-27T04:39:26.213Z,90.77
2023-01-27T04:41:53.161Z,90.48
2023-01-27T04:44:21.476Z,90.03
2023-01-27T04:46:50.634Z,90.13
2023-01-27T04:49:17.946Z,90.86
2023-01-27T04:51:46.317Z,90.53
2023-01-27T04:54:14.308Z,90.04
2023-01-27T04:56:42.357Z,90.54
2023-01-27T04:59:12.006Z,90.51
2023-01-27T05:01:40.631Z,90.35
2023-01-27T05:04:07.971Z,91.02
2023-01-27T05:06:34.879Z,90.12
2023-01-27T05:09:01.695Z,90.14
2023-01-27T05:11:29.861Z,89.86
2023-01-27T05:13:56.582Z,90.24
2023-01-27T05:16:24.588Z,89.53
2023-01-27T05:18:53.661Z,90.35
2023-01-27T05:21:22.493Z,90.17
2023-01-27T05:23:50.102Z,89.53
2023-01-27T05:26:18.516Z,90.81
2023-01-27T05:28:47.578Z,89.70
2023-01-27T05:31:15.920Z,90.41
2023-01-27T05:33:42.752Z,90.38
2023-01-27T05:36:13.605Z,90.41
2023-01-27T05:38:41.072Z,90.47
2023-01-27T05:41:10.715Z,91.03
2023-01-27T05:43:39.418Z,90.79
2023-01-27T05:46:08.671Z,90.54
2023-01-27T05:48:39.872Z,90.54
2023-01-27T05:51:07.583Z,90.56
2023-01-27T05:53:35.977Z,90.19
2023-01-27T05:56:06.656Z,90.39
2023-01-27T05:58:33.491Z,90.73
2023-01-27T06:01:07.824Z,90.19
2023-01-27T06:03:35.159Z,90.21
2023-01-27T06:06:01.937Z,90.24
2023-01-27T06:08:29.001Z,89.96
2023-01-27T06:10:59.096Z,89.81
2023-01-27T06:13:26.763Z,89.84
2023-01-27T06:15:55.281Z,89.52
2023-01-27T06:18:24.461Z,89.58
2023-01-27T06:20:51.458Z,89.32
2023-01-27T06:23:22.605Z,89.02
2023-01-27T06:25:49.402Z,89.37
2023-01-27T06:28:33.410Z,89.83
2023-01-27T06:31:08.510Z,89.51
2023-01-27T06:33:35.749Z,89.51
2023-01-27T06:36:03.995Z,89.19
2023-01-27T06:38:31.077Z,89.77
2023-01-27T06:40:57.940Z,89.23
2023-01-27T06:43:27.019Z,89.06
2023-01-27T06:45:54.543Z,88.51
2023-01-27T06:48:21.475Z,88.69
2023-01-27T06:50:48.480Z,88.39
2023-01-27T06:53:16.458Z,88.69
2023-01-27T06:55:43.208Z,88.42
2023-01-27T06:58:11.160Z,88.11
2023-01-27T07:00:40.687Z,88.66
2023-01-27T07:03:09.522Z,87.83
2023-01-27T07:05:38.784Z,87.78
2023-01-27T07:08:06.092Z,88.27
2023-01-27T07:10:32.931Z,87.89
2023-01-27T07:13:06.670Z,87.61
2023-01-27T07:15:33.789Z,88.63
2023-01-27T07:18:03.882Z,88.12
2023-01-27T07:23:23.382Z,87.80
2023-01-27T07:25:50.372Z,87.36
2023-01-27T07:28:17.172Z,87.76
2023-01-27T07:30:44.086Z,87.39
2023-01-27T07:33:19.122Z,87.33
2023-01-27T07:35:48.847Z,87.36
2023-01-27T07:38:16.192Z,88.08
2023-01-27T07:40:42.906Z,87.62
2023-01-27T07:43:12.971Z,87.54
2023-01-27T07:45:41.063Z,87.32
2023-01-27T07:48:08.976Z,87.85
2023-01-27T07:50:40.446Z,87.73
2023-01-27T07:53:07.210Z,87.41
2023-01-27T07:55:34.385Z,87.11
2023-01-27T07:58:01.552Z,88.16
2023-01-27T08:00:29.153Z,87.54
2023-01-27T08:02:57.867Z,87.16
2023-01-27T08:05:25.555Z,87.28
2023-01-27T08:07:57.068Z,87.00
2023-01-27T08:10:25.517Z,86.97
2023-01-27T08:12:54.157Z,87.24
2023-01-27T08:15:21.019Z,87.25
2023-01-27T08:17:53.832Z,87.42
2023-01-27T08:20:20.563Z,87.27
2023-01-27T08:22:47.251Z,87.78
2023-01-27T08:25:15.742Z,86.96
2023-01-27T08:27:42.407Z,87.01
2023-01-27T08:30:11.993Z,86.92
2023-01-27T08:32:38.973Z,87.14
2023-01-27T08:35:06.183Z,87.48
2023-01-27T08:37:33.727Z,87.36
2023-01-27T08:40:00.851Z,87.95
2023-01-27T08:42:29.393Z,87.61
2023-01-27T08:44:58.483Z,87.72
2023-01-27T08:47:25.270Z,88.12
2023-01-27T08:49:53.379Z,88.36
2023-01-27T08:52:20.172Z,88.80
2023-01-27T08:54:49.211Z,88.77
2023-01-27T08:57:18.088Z,88.77
2023-01-27T08:59:46.208Z,88.58
2023-01-27T09:02:14.039Z,88.97
2023-01-27T09:04:40.763Z,88.90
2023-01-27T09:07:09.521Z,89.31
2023-01-27T09:09:36.571Z,88.93
2023-01-27T09:12:03.363Z,88.94
2023-01-27T09:14:31.151Z,89.45
2023-01-27T09:17:01.768Z,89.96
2023-01-27T09:19:28.795Z,89.35
2023-01-27T09:21:55.530Z,89.45
2023-01-27T09:24:22.807Z,89.94
2023-01-27T09:26:49.674Z,90.13
2023-01-27T09:29:16.536Z,89.76
2023-01-27T09:31:43.444Z,90.38
2023-01-27T09:34:13.013Z,90.65
2023-01-27T09:36:50.338Z,90.75
2023-01-27T09:39:19.070Z,90.88
2023-01-27T09:42:18.754Z,90.42
2023-01-27T09:45:10.253Z,90.67
2023-01-27T09:47:46.359Z,90.56
2023-01-27T09:50:36.831Z,90.19
2023-01-27T09:53:41.740Z,89.95
2023-01-27T09:56:27.414Z,90.56
2023-01-27T10:10:36.543Z,91.18
2023-01-27T10:13:50.653Z,92.20
2023-01-27T10:20:49.454Z,91.48
2023-01-27T10:24:06.022Z,90.78
2023-01-27T10:29:57.151Z,91.09
2023-01-27T10:33:03.465Z,91.53
2023-01-27T10:36:09.110Z,90.36
2023-01-27T10:39:06.980Z,90.32
2023-01-27T10:45:08.730Z,90.15
2023-01-27T10:47:51.526Z,89.86
2023-01-27T10:54:44.559Z,88.71
2023-01-27T11:01:21.259Z,88.77
2023-01-27T11:07:27.208Z,88.55
2023-01-27T11:10:53.117Z,88.07
2023-01-27T11:13:20.217Z,88.54
2023-01-27T11:15:47.888Z,88.65
2023-01-27T11:18:21.094Z,87.27
2023-01-27T11:20:54.560Z,87.18
2023-01-27T11:23:26.615Z,86.40
2023-01-27T11:26:06.687Z,86.50
2023-01-27T11:28:41.257Z,86.21
2023-01-27T11:31:21.109Z,86.55
2023-01-27T11:33:59.941Z,86.44
2023-01-27T11:36:27.235Z,86.48
2023-01-27T11:38:55.655Z,86.99
2023-01-27T11:41:22.814Z,87.20
2023-01-27T11:43:50.582Z,86.12
2023-01-27T11:46:22.821Z,85.86
2023-01-27T11:48:57.125Z,86.06
2023-01-27T11:51:26.351Z,84.85
2023-01-27T11:54:03.429Z,84.75
2023-01-27T11:56:30.824Z,85.03
2023-01-27T11:59:04.259Z,85.27
2023-01-27T12:01:40.526Z,84.45
2023-01-27T12:04:16.363Z,84.01
2023-01-27T12:06:50.050Z,84.75
2023-01-27T12:09:36.757Z,84.63
2023-01-27T12:12:12.261Z,84.63
2023-01-27T12:14:39.417Z,85.40
2023-01-27T12:17:08.237Z,85.50
2023-01-27T12:19:41.545Z,83.54
2023-01-27T12:22:17.261Z,84.54
2023-01-27T12:24:50.621Z,84.32
2023-01-27T12:27:22.663Z,84.04
2023-01-27T12:29:53.542Z,84.43
2023-01-27T12:32:24.691Z,84.76
2023-01-27T12:34:56.271Z,85.24
2023-01-27T12:37:27.533Z,84.77
2023-01-27T12:39:57.871Z,85.33
2023-01-27T12:42:38.819Z,85.07
2023-01-27T12:45:25.843Z,85.40
2023-01-27T12:48:02.790Z,85.12
2023-01-27T12:50:33.952Z,85.32
2023-01-27T12:53:05.539Z,85.37
2023-01-27T12:55:34.689Z,85.37
2023-01-27T12:58:04.096Z,85.97
2023-01-27T13:00:31.529Z,86.17
2023-01-27T13:03:05.791Z,85.93
2023-01-27T13:05:39.039Z,85.84
2023-01-27T13:08:13.094Z,86.40
2023-01-27T13:10:39.926Z,86.08
2023-01-27T13:13:21.248Z,86.48
2023-01-27T13:16:00.866Z,86.06
2023-01-27T13:18:36.981Z,86.60
2023-01-27T13:21:13.108Z,87.12
2023-01-27T13:23:41.144Z,87.24
2023-01-27T13:26:16.694Z,87.60
2023-01-27T13:28:53.116Z,86.93
2023-01-27T13:31:35.768Z,87.38
2023-01-27T13:34:13.211Z,87.65
2023-01-27T13:36:47.486Z,87.60
2023-01-27T13:39:19.009Z,87.52
2023-01-27T13:41:54.626Z,87.59
2023-01-27T13:44:28.730Z,87.59
2023-01-27T13:47:01.508Z,88.19
2023-01-27T13:49:34.951Z,87.40
2023-01-27T13:52:05.654Z,87.71
2023-01-27T13:54:33.436Z,87.37
2023-01-27T13:57:18.317Z,87.40
2023-01-27T13:59:56.120Z,87.71
2023-01-27T14:02:37.972Z,87.75
2023-01-27T14:05:22.428Z,87.40
2023-01-27T14:07:58.562Z,87.36
2023-01-27T14:10:33.792Z,87.48
2023-01-27T14:13:11.879Z,87.66
2023-01-27T14:15:46.836Z,87.73
2023-01-27T14:18:18.505Z,87.95
2023-01-27T14:21:02.724Z,87.71
2023-01-27T14:23:39.911Z,88.91
2023-01-27T14:26:20.430Z,88.21
2023-01-27T14:29:07.202Z,87.62
2023-01-27T14:31:45.497Z,87.53
2023-01-27T14:34:38.879Z,87.74
2023-01-27T14:37:16.126Z,87.60
2023-01-27T14:39:59.872Z,87.26
2023-01-27T14:42:33.742Z,87.38
2023-01-27T14:45:08.755Z,87.66
2023-01-27T14:47:46.539Z,86.80
2023-01-27T14:50:25.792Z,87.91
2023-01-27T14:53:05.657Z,87.07
2023-01-27T14:55:40.524Z,87.50
2023-01-27T14:58:36.841Z,87.26
2023-01-27T15:01:11.165Z,87.07
2023-01-27T15:03:53.526Z,86.93
2023-01-27T15:06:27.569Z,86.65
2023-01-27T15:09:01.340Z,86.88
2023-01-27T15:11:44.603Z,86.64
2023-01-27T15:14:35.107Z,86.49
2023-01-27T15:17:23.009Z,86.40
2023-01-27T15:20:11.901Z,86.79
2023-01-27T15:23:03.825Z,86.81
2023-01-27T15:25:34.236Z,86.31
2023-01-27T15:28:04.311Z,86.97
2023-01-27T15:30:33.512Z,86.83
2023-01-27T15:33:01.598Z,87.07
2023-01-27T15:35:37.316Z,87.19
2023-01-27T15:38:33.179Z,86.87
2023-01-27T15:41:08.795Z,87.39
2023-01-27T15:43:40.696Z,87.80
2023-01-27T15:46:29.565Z,86.90
2023-01-27T15:48:58.944Z,86.80
2023-01-27T15:51:26.353Z,87.07
2023-01-27T15:53:58.915Z,86.54
2023-01-27T15:56:46.946Z,86.84
2023-01-27T15:59:22.979Z,86.88
2023-01-27T16:01:59.463Z,86.31
2023-01-27T16:04:30.312Z,86.63
2023-01-27T16:07:00.324Z,86.62
2023-01-27T16:18:40.865Z,86.47
2023-01-27T16:21:35.987Z,87.45
2023-01-27T16:24:12.369Z,87.76
2023-01-27T16:26:43.125Z,87.03
2023-01-27T16:33:01.931Z,88.19
2023-01-27T16:35:34.133Z,87.69
2023-01-27T16:38:20.519Z,87.73
2023-01-27T16:40:51.880Z,87.28
2023-01-27T16:43:26.479Z,87.28
2023-01-27T16:45:55.595Z,87.78
2023-01-27T16:48:37.214Z,87.55
2023-01-27T16:51:15.269Z,86.50
2023-01-27T16:53:46.782Z,87.40
2023-01-27T16:56:31.092Z,87.59
2023-01-27T16:59:01.841Z,87.47
2023-01-27T17:01:38.624Z,86.97
2023-01-27T17:04:19.384Z,87.81
2023-01-27T17:06:47.901Z,87.07
2023-01-27T17:09:23.116Z,87.58
2023-01-27T17:11:53.364Z,87.71
2023-01-27T17:14:30.717Z,87.80
2023-01-27T17:17:02.209Z,87.71
2023-01-27T17:19:34.334Z,87.56
2023-01-27T17:22:06.819Z,87.55
2023-01-27T17:24:41.895Z,87.00
2023-01-27T17:27:19.567Z,87.06
2023-01-27T17:29:52.152Z,86.88
2023-01-27T17:32:22.183Z,87.12
2023-01-27T17:34:52.706Z,87.62
2023-01-27T17:37:21.064Z,87.34
2023-01-27T17:39:52.182Z,87.36
2023-01-27T17:42:22.348Z,87.38
2023-01-27T17:44:49.336Z,87.32
2023-01-27T17:47:18.607Z,87.23
2023-01-27T17:49:47.642Z,87.53
2023-01-27T17:52:22.768Z,87.43
2023-01-27T17:54:51.083Z,87.21
2023-01-27T17:57:23.769Z,87.30
2023-01-27T18:00:02.178Z,87.26
2023-01-27T18:02:33.905Z,87.48
2023-01-27T18:05:04.749Z,86.95
2023-01-27T18:07:33.825Z,87.45
2023-01-27T18:10:12.004Z,86.36
2023-01-27T18:12:39.335Z,87.48
2023-01-27T18:15:38.380Z,87.23
2023-01-27T18:18:07.149Z,87.12
2023-01-27T18:20:35.227Z,87.11
2023-01-27T18:23:05.655Z,86.87
2023-01-27T18:25:32.857Z,86.93
2023-01-27T18:28:00.052Z,87.37
2023-01-27T18:30:27.899Z,86.55
2023-01-27T18:33:02.285Z,87.13
2023-01-27T18:35:35.528Z,86.62
2023-01-27T18:38:19.121Z,86.54
2023-01-27T18:40:46.657Z,86.29
2023-01-27T18:43:13.960Z,86.38
2023-01-27T18:45:46.149Z,86.43
2023-01-27T18:48:15.194Z,85.84
2023-01-27T18:50:43.688Z,86.67
2023-01-27T18:53:18.028Z,86.10
2023-01-27T18:55:45.058Z,86.51
2023-01-27T18:58:12.528Z,86.39
2023-01-27T19:00:45.136Z,85.83
2023-01-27T19:03:15.038Z,85.81
2023-01-27T19:05:43.047Z,86.39
2023-01-27T19:08:16.910Z,85.65
2023-01-27T19:10:45.047Z,86.26
2023-01-27T19:13:12.313Z,86.56
2023-01-27T19:15:47.175Z,85.69
2023-01-27T19:18:18.907Z,86.63
2023-01-27T19:20:45.994Z,86.14
2023-01-27T19:23:19.580Z,85.99
2023-01-27T19:25:49.563Z,86.26
2023-01-27T19:28:21.067Z,86.65
2023-01-27T19:30:48.155Z,86.83
2023-01-27T19:33:26.758Z,85.78
2023-01-27T19:35:55.326Z,86.22
2023-01-27T19:38:27.016Z,86.51
2023-01-27T19:40:54.088Z,86.52
2023-01-27T19:43:21.387Z,85.89
2023-01-27T19:45:50.390Z,85.39
2023-01-27T19:48:19.084Z,86.13
2023-01-27T19:50:46.050Z,85.61
2023-01-27T19:53:14.415Z,85.68
2023-01-27T19:55:44.200Z,85.69
2023-01-27T19:58:20.370Z,85.56
2023-01-27T20:00:47.602Z,86.07
2023-01-27T20:03:14.750Z,86.11
2023-01-27T20:05:44.133Z,85.87
2023-01-27T20:08:15.373Z,85.56
2023-01-27T20:10:44.348Z,85.17
2023-01-27T20:13:14.787Z,85.33
2023-01-27T20:15:42.444Z,85.85
2023-01-27T20:18:13.406Z,85.52
2023-01-27T20:20:40.779Z,85.40
2023-01-27T20:23:13.115Z,85.55
2023-01-27T20:25:39.936Z,85.59
2023-01-27T20:28:15.850Z,85.43
2023-01-27T20:30:43.300Z,85.14
2023-01-27T20:33:12.355Z,85.72
2023-01-27T20:35:39.479Z,85.38
2023-01-27T20:38:07.349Z,85.42
2023-01-27T20:40:38.124Z,85.41
2023-01-27T20:43:05.209Z,85.24
2023-01-27T20:45:34.041Z,85.40
2023-01-27T20:48:00.936Z,85.39
2023-01-27T20:50:28.225Z,85.29
2023-01-27T20:52:55.891Z,84.95
2023-01-27T20:55:22.731Z,85.09
2023-01-27T20:57:50.286Z,85.38
2023-01-27T21:00:19.010Z,85.50
2023-01-27T21:02:48.597Z,85.72
2023-01-27T21:05:15.959Z,84.99
2023-01-27T21:07:43.332Z,85.96
2023-01-27T21:10:14.023Z,85.81
2023-01-27T21:12:40.942Z,85.48
2023-01-27T21:15:09.708Z,85.50
2023-01-27T21:17:36.950Z,85.32
2023-01-27T21:20:07.267Z,85.82
2023-01-27T21:22:34.632Z,85.52
2023-01-27T21:25:01.435Z,86.02
2023-01-27T21:27:29.273Z,85.39
2023-01-27T21:29:56.136Z,85.80
2023-01-27T21:32:23.205Z,85.85
2023-01-27T21:34:50.047Z,85.20
2023-01-27T21:37:18.647Z,85.62
2023-01-27T21:39:47.207Z,85.27
2023-01-27T21:42:14.638Z,84.99
2023-01-27T21:44:41.517Z,84.92
2023-01-27T21:47:09.999Z,84.56
2023-01-27T21:49:41.243Z,85.02
2023-01-27T21:52:08.387Z,84.07
2023-01-27T21:54:36.861Z,84.56
2023-01-27T21:57:03.897Z,84.81
2023-01-27T21:59:30.696Z,84.84
2023-01-27T22:01:57.670Z,84.54
2023-01-27T22:04:26.780Z,84.27
2023-01-27T22:06:54.258Z,84.62
2023-01-27T22:09:21.658Z,84.38
2023-01-27T22:11:51.250Z,84.28
2023-01-27T22:14:18.339Z,84.13
2023-01-27T22:16:45.479Z,84.28
2023-01-27T22:19:12.977Z,84.42
2023-01-27T22:21:40.112Z,84.30
2023-01-27T22:24:08.920Z,83.92
2023-01-27T22:26:37.089Z,84.26
2023-01-27T22:29:06.053Z,83.76
2023-01-27T22:31:32.913Z,84.44
2023-01-27T22:33:59.834Z,84.34
2023-01-27T22:36:29.945Z,83.84
2023-01-27T22:38:56.727Z,84.30
2023-01-27T22:41:23.980Z,83.84
2023-01-27T22:43:51.032Z,83.91
2023-01-27T22:46:21.530Z,83.46
2023-01-27T22:48:48.658Z,83.72
2023-01-27T22:51:16.386Z,84.49
2023-01-27T22:53:43.482Z,84.15
2023-01-27T22:56:10.384Z,84.35
2023-01-27T22:58:37.349Z,84.11
2023-01-27T23:01:06.247Z,84.34
2023-01-27T23:03:34.977Z,83.49
2023-01-27T23:06:05.017Z,83.79
2023-01-27T23:08:32.677Z,83.98
2023-01-27T23:11:02.069Z,83.19
2023-01-27T23:13:29.532Z,83.51
2023-01-27T23:15:56.556Z,83.05
2023-01-27T23:18:25.111Z,82.80
2023-01-27T23:20:53.496Z,83.19
2023-01-27T23:23:20.561Z,82.86
2023-01-27T23:25:47.912Z,83.11
2023-01-27T23:28:19.211Z,82.50
2023-01-27T23:30:47.319Z,83.33
2023-01-27T23:33:15.538Z,83.41
2023-01-27T23:35:42.492Z,83.22
2023-01-27T23:38:26.276Z,82.83
2023-01-27T23:41:01.062Z,82.56
2023-01-27T23:43:28.058Z,82.97
2023-01-27T23:45:55.524Z,82.35
2023-01-27T23:48:23.590Z,82.52
2023-01-27T23:50:50.345Z,83.21
2023-01-27T23:53:18.462Z,82.44
2023-01-27T23:55:53.632Z,83.10
2023-01-27T23:58:20.819Z,82.17
